sensor_id;sensor_type;location;lat;lon;timestamp;temperature;humidity
43561;DHT22;32305;46.410;17.394;2023-02-12T00:01:21;20.20;28.10
43561;DHT22;32305;46.410;17.394;2023-02-12T00:03:49;20.20;28.10
43561;DHT22;32305;46.410;17.394;2023-02-12T00:06:17;20.30;28.20
43561;DHT22;32305;46.410;17.394;2023-02-12T00:08:47;20.20;28.20
43561;DHT22;32305;46.410;17.394;2023-02-12T00:11:17;20.20;28.20
43561;DHT22;32305;46.410;17.394;2023-02-12T00:13:44;20.20;28.20
43561;DHT22;32305;46.410;17.394;2023-02-12T00:16:17;20.20;28.20
43561;DHT22;32305;46.410;17.394;2023-02-12T00:18:46;20.20;28.20
43561;DHT22;32305;46.410;17.394;2023-02-12T00:21:13;20.20;28.20
43561;DHT22;32305;46.410;17.394;2023-02-12T00:23:41;20.30;28.20
43561;DHT22;32305;46.410;17.394;2023-02-12T00:26:10;20.20;28.20
43561;DHT22;32305;46.410;17.394;2023-02-12T00:28:38;20.20;28.20
43561;DHT22;32305;46.410;17.394;2023-02-12T00:31:11;20.20;28.20
43561;DHT22;32305;46.410;17.394;2023-02-12T00:33:39;20.30;28.20
43561;DHT22;32305;46.410;17.394;2023-02-12T00:36:08;20.20;28.20
43561;DHT22;32305;46.410;17.394;2023-02-12T00:38:35;20.20;28.20
43561;DHT22;32305;46.410;17.394;2023-02-12T00:41:02;20.20;28.20
43561;DHT22;32305;46.410;17.394;2023-02-12T00:43:29;20.20;28.20
43561;DHT22;32305;46.410;17.394;2023-02-12T00:45:57;20.20;28.20
43561;DHT22;32305;46.410;17.394;2023-02-12T00:48:24;20.20;28.20
43561;DHT22;32305;46.410;17.394;2023-02-12T00:50:51;20.20;28.20
43561;DHT22;32305;46.410;17.394;2023-02-12T00:53:18;20.20;28.20
43561;DHT22;32305;46.410;17.394;2023-02-12T00:55:46;20.20;28.20
43561;DHT22;32305;46.410;17.394;2023-02-12T00:58:13;20.20;28.20
43561;DHT22;32305;46.410;17.394;2023-02-12T01:00:44;20.20;28.20
43561;DHT22;32305;46.410;17.394;2023-02-12T01:03:12;20.20;28.20
43561;DHT22;32305;46.410;17.394;2023-02-12T01:05:39;20.20;28.20
43561;DHT22;32305;46.410;17.394;2023-02-12T01:08:06;20.20;28.20
43561;DHT22;32305;46.410;17.394;2023-02-12T01:10:34;20.20;28.20
43561;DHT22;32305;46.410;17.394;2023-02-12T01:13:01;20.20;28.20
43561;DHT22;32305;46.410;17.394;2023-02-12T01:15:28;20.20;28.20
43561;DHT22;32305;46.410;17.394;2023-02-12T01:17:55;20.20;28.20
43561;DHT22;32305;46.410;17.394;2023-02-12T01:20:23;20.20;28.30
43561;DHT22;32305;46.410;17.394;2023-02-12T01:22:50;20.20;28.30
43561;DHT22;32305;46.410;17.394;2023-02-12T01:25:18;20.20;28.30
43561;DHT22;32305;46.410;17.394;2023-02-12T01:27:46;20.20;28.30
43561;DHT22;32305;46.410;17.394;2023-02-12T01:30:14;20.20;28.30
43561;DHT22;32305;46.410;17.394;2023-02-12T01:32:42;20.20;28.30
43561;DHT22;32305;46.410;17.394;2023-02-12T01:35:10;20.20;28.70
43561;DHT22;32305;46.410;17.394;2023-02-12T01:37:37;20.10;28.30
43561;DHT22;32305;46.410;17.394;2023-02-12T01:40:07;20.20;28.30
43561;DHT22;32305;46.410;17.394;2023-02-12T01:42:34;20.20;28.30
43561;DHT22;32305;46.410;17.394;2023-02-12T01:45:37;20.20;28.30
43561;DHT22;32305;46.410;17.394;2023-02-12T01:48:10;20.10;28.30
43561;DHT22;32305;46.410;17.394;2023-02-12T01:50:38;20.20;28.30
43561;DHT22;32305;46.410;17.394;2023-02-12T01:53:05;20.10;28.30
43561;DHT22;32305;46.410;17.394;2023-02-12T01:55:32;20.10;28.30
43561;DHT22;32305;46.410;17.394;2023-02-12T01:57:59;20.10;28.30
43561;DHT22;32305;46.410;17.394;2023-02-12T02:00:26;20.10;28.30
43561;DHT22;32305;46.410;17.394;2023-02-12T02:02:56;20.10;28.40
43561;DHT22;32305;46.410;17.394;2023-02-12T02:05:34;20.10;28.30
43561;DHT22;32305;46.410;17.394;2023-02-12T02:08:04;20.10;28.30
43561;DHT22;32305;46.410;17.394;2023-02-12T02:10:32;20.10;28.30
43561;DHT22;32305;46.410;17.394;2023-02-12T02:12:59;20.10;28.30
43561;DHT22;32305;46.410;17.394;2023-02-12T02:15:48;20.10;28.30
43561;DHT22;32305;46.410;17.394;2023-02-12T02:18:34;20.10;28.30
43561;DHT22;32305;46.410;17.394;2023-02-12T02:21:37;20.10;28.30
43561;DHT22;32305;46.410;17.394;2023-02-12T02:24:36;20.10;28.40
43561;DHT22;32305;46.410;17.394;2023-02-12T02:27:34;20.10;28.40
43561;DHT22;32305;46.410;17.394;2023-02-12T02:30:23;20.10;28.40
43561;DHT22;32305;46.410;17.394;2023-02-12T02:36:34;20.10;28.40
43561;DHT22;32305;46.410;17.394;2023-02-12T02:39:51;20.10;28.40
43561;DHT22;32305;46.410;17.394;2023-02-12T02:42:34;20.10;28.40
43561;DHT22;32305;46.410;17.394;2023-02-12T02:45:17;20.10;28.40
43561;DHT22;32305;46.410;17.394;2023-02-12T02:47:54;20.10;28.40
43561;DHT22;32305;46.410;17.394;2023-02-12T02:50:24;20.10;28.40
43561;DHT22;32305;46.410;17.394;2023-02-12T02:53:07;20.10;28.40
43561;DHT22;32305;46.410;17.394;2023-02-12T02:55:49;20.10;28.40
43561;DHT22;32305;46.410;17.394;2023-02-12T02:58:23;20.10;28.40
43561;DHT22;32305;46.410;17.394;2023-02-12T03:00:57;20.10;28.40
43561;DHT22;32305;46.410;17.394;2023-02-12T03:06:31;20.10;28.40
43561;DHT22;32305;46.410;17.394;2023-02-12T03:09:07;20.10;28.40
43561;DHT22;32305;46.410;17.394;2023-02-12T03:11:35;20.10;28.40
43561;DHT22;32305;46.410;17.394;2023-02-12T03:14:12;20.10;28.40
43561;DHT22;32305;46.410;17.394;2023-02-12T03:17:02;20.10;28.40
43561;DHT22;32305;46.410;17.394;2023-02-12T03:19:35;20.10;28.40
43561;DHT22;32305;46.410;17.394;2023-02-12T03:22:09;20.00;28.40
43561;DHT22;32305;46.410;17.394;2023-02-12T03:24:44;20.10;28.50
43561;DHT22;32305;46.410;17.394;2023-02-12T03:27:29;20.10;28.50
43561;DHT22;32305;46.410;17.394;2023-02-12T03:29:57;20.10;28.50
43561;DHT22;32305;46.410;17.394;2023-02-12T03:33:00;20.10;28.50
43561;DHT22;32305;46.410;17.394;2023-02-12T03:35:37;20.10;28.50
43561;DHT22;32305;46.410;17.394;2023-02-12T03:38:26;20.10;28.50
43561;DHT22;32305;46.410;17.394;2023-02-12T03:41:02;20.00;28.50
43561;DHT22;32305;46.410;17.394;2023-02-12T03:43:45;20.00;28.50
43561;DHT22;32305;46.410;17.394;2023-02-12T03:49:20;20.10;28.60
43561;DHT22;32305;46.410;17.394;2023-02-12T03:51:47;20.00;28.50
43561;DHT22;32305;46.410;17.394;2023-02-12T03:54:18;20.00;28.50
43561;DHT22;32305;46.410;17.394;2023-02-12T03:56:47;20.00;28.50
43561;DHT22;32305;46.410;17.394;2023-02-12T03:59:19;20.00;28.50
43561;DHT22;32305;46.410;17.394;2023-02-12T04:01:47;20.00;28.50
43561;DHT22;32305;46.410;17.394;2023-02-12T04:04:16;20.00;28.60
43561;DHT22;32305;46.410;17.394;2023-02-12T04:06:45;20.00;28.60
43561;DHT22;32305;46.410;17.394;2023-02-12T04:09:14;20.00;28.60
43561;DHT22;32305;46.410;17.394;2023-02-12T04:12:14;20.00;28.60
43561;DHT22;32305;46.410;17.394;2023-02-12T04:15:20;20.00;28.60
43561;DHT22;32305;46.410;17.394;2023-02-12T04:18:17;20.00;28.60
43561;DHT22;32305;46.410;17.394;2023-02-12T04:21:06;20.00;28.60
43561;DHT22;32305;46.410;17.394;2023-02-12T04:23:54;20.00;28.70
43561;DHT22;32305;46.410;17.394;2023-02-12T04:29:31;20.00;28.70
43561;DHT22;32305;46.410;17.394;2023-02-12T04:32:04;20.00;28.70
43561;DHT22;32305;46.410;17.394;2023-02-12T04:34:49;20.00;28.80
43561;DHT22;32305;46.410;17.394;2023-02-12T04:37:22;20.00;28.80
43561;DHT22;32305;46.410;17.394;2023-02-12T04:39:52;20.00;28.80
43561;DHT22;32305;46.410;17.394;2023-02-12T04:42:20;20.00;28.80
43561;DHT22;32305;46.410;17.394;2023-02-12T04:44:47;20.00;28.80
43561;DHT22;32305;46.410;17.394;2023-02-12T04:47:15;20.00;28.80
43561;DHT22;32305;46.410;17.394;2023-02-12T04:49:42;20.00;28.80
43561;DHT22;32305;46.410;17.394;2023-02-12T04:52:10;20.00;28.80
43561;DHT22;32305;46.410;17.394;2023-02-12T04:54:37;20.00;28.90
43561;DHT22;32305;46.410;17.394;2023-02-12T04:57:04;20.00;28.90
43561;DHT22;32305;46.410;17.394;2023-02-12T04:59:31;20.00;28.90
43561;DHT22;32305;46.410;17.394;2023-02-12T05:01:58;20.00;28.90
43561;DHT22;32305;46.410;17.394;2023-02-12T05:04:25;20.00;28.90
43561;DHT22;32305;46.410;17.394;2023-02-12T05:06:52;20.00;28.90
43561;DHT22;32305;46.410;17.394;2023-02-12T05:09:19;20.00;28.90
43561;DHT22;32305;46.410;17.394;2023-02-12T05:11:47;20.00;28.90
43561;DHT22;32305;46.410;17.394;2023-02-12T05:14:14;19.90;28.90
43561;DHT22;32305;46.410;17.394;2023-02-12T05:16:42;19.90;28.90
43561;DHT22;32305;46.410;17.394;2023-02-12T05:19:09;19.90;29.00
43561;DHT22;32305;46.410;17.394;2023-02-12T05:21:37;19.90;29.00
43561;DHT22;32305;46.410;17.394;2023-02-12T05:24:04;19.90;29.00
43561;DHT22;32305;46.410;17.394;2023-02-12T05:26:32;19.90;29.00
43561;DHT22;32305;46.410;17.394;2023-02-12T05:28:59;19.90;29.00
43561;DHT22;32305;46.410;17.394;2023-02-12T05:31:26;20.00;29.10
43561;DHT22;32305;46.410;17.394;2023-02-12T05:33:53;19.90;29.00
43561;DHT22;32305;46.410;17.394;2023-02-12T05:36:22;19.90;29.00
43561;DHT22;32305;46.410;17.394;2023-02-12T05:38:51;19.90;29.10
43561;DHT22;32305;46.410;17.394;2023-02-12T05:41:20;19.90;29.10
43561;DHT22;32305;46.410;17.394;2023-02-12T05:43:48;19.90;29.20
43561;DHT22;32305;46.410;17.394;2023-02-12T05:46:17;19.90;29.30
43561;DHT22;32305;46.410;17.394;2023-02-12T05:48:45;19.80;29.30
43561;DHT22;32305;46.410;17.394;2023-02-12T05:51:15;19.80;29.30
43561;DHT22;32305;46.410;17.394;2023-02-12T05:53:43;19.80;29.40
43561;DHT22;32305;46.410;17.394;2023-02-12T05:56:14;19.80;29.40
43561;DHT22;32305;46.410;17.394;2023-02-12T05:58:44;19.80;29.40
43561;DHT22;32305;46.410;17.394;2023-02-12T06:01:26;19.80;29.40
43561;DHT22;32305;46.410;17.394;2023-02-12T06:03:54;19.80;29.90
43561;DHT22;32305;46.410;17.394;2023-02-12T06:06:21;19.80;29.50
43561;DHT22;32305;46.410;17.394;2023-02-12T06:08:50;19.90;29.50
43561;DHT22;32305;46.410;17.394;2023-02-12T06:11:17;19.90;29.50
43561;DHT22;32305;46.410;17.394;2023-02-12T06:13:46;19.90;29.50
43561;DHT22;32305;46.410;17.394;2023-02-12T06:16:23;19.90;29.40
43561;DHT22;32305;46.410;17.394;2023-02-12T06:18:50;19.90;29.40
43561;DHT22;32305;46.410;17.394;2023-02-12T06:21:19;20.00;29.40
43561;DHT22;32305;46.410;17.394;2023-02-12T06:23:47;20.00;29.40
43561;DHT22;32305;46.410;17.394;2023-02-12T06:26:15;20.10;29.40
43561;DHT22;32305;46.410;17.394;2023-02-12T06:28:43;20.10;29.40
43561;DHT22;32305;46.410;17.394;2023-02-12T06:31:28;20.10;29.40
43561;DHT22;32305;46.410;17.394;2023-02-12T06:33:57;20.20;29.30
43561;DHT22;32305;46.410;17.394;2023-02-12T06:36:24;20.30;29.40
43561;DHT22;32305;46.410;17.394;2023-02-12T06:38:52;20.30;29.30
43561;DHT22;32305;46.410;17.394;2023-02-12T06:41:20;20.30;29.30
43561;DHT22;32305;46.410;17.394;2023-02-12T06:43:48;20.40;29.30
43561;DHT22;32305;46.410;17.394;2023-02-12T06:46:15;20.40;29.30
43561;DHT22;32305;46.410;17.394;2023-02-12T06:48:43;20.40;29.30
43561;DHT22;32305;46.410;17.394;2023-02-12T06:51:13;20.50;29.30
43561;DHT22;32305;46.410;17.394;2023-02-12T06:53:41;20.50;29.30
43561;DHT22;32305;46.410;17.394;2023-02-12T06:56:10;20.50;29.20
43561;DHT22;32305;46.410;17.394;2023-02-12T06:58:40;20.60;29.20
43561;DHT22;32305;46.410;17.394;2023-02-12T07:01:14;20.60;29.20
43561;DHT22;32305;46.410;17.394;2023-02-12T07:03:49;20.70;29.20
43561;DHT22;32305;46.410;17.394;2023-02-12T07:06:17;20.70;29.10
43561;DHT22;32305;46.410;17.394;2023-02-12T07:08:45;20.70;29.10
43561;DHT22;32305;46.410;17.394;2023-02-12T07:11:13;20.80;29.10
43561;DHT22;32305;46.410;17.394;2023-02-12T07:13:41;20.80;29.10
43561;DHT22;32305;46.410;17.394;2023-02-12T07:16:11;20.80;29.00
43561;DHT22;32305;46.410;17.394;2023-02-12T07:18:38;20.90;29.00
43561;DHT22;32305;46.410;17.394;2023-02-12T07:21:07;20.90;29.00
43561;DHT22;32305;46.410;17.394;2023-02-12T07:23:35;20.90;29.40
43561;DHT22;32305;46.410;17.394;2023-02-12T07:26:04;21.00;29.00
43561;DHT22;32305;46.410;17.394;2023-02-12T07:28:32;21.00;29.00
43561;DHT22;32305;46.410;17.394;2023-02-12T07:31:09;21.00;29.00
43561;DHT22;32305;46.410;17.394;2023-02-12T07:33:37;21.10;29.00
43561;DHT22;32305;46.410;17.394;2023-02-12T07:36:08;21.10;29.00
43561;DHT22;32305;46.410;17.394;2023-02-12T07:38:36;21.10;29.00
43561;DHT22;32305;46.410;17.394;2023-02-12T07:41:14;21.10;29.00
43561;DHT22;32305;46.410;17.394;2023-02-12T07:43:43;21.10;29.00
43561;DHT22;32305;46.410;17.394;2023-02-12T07:46:13;21.20;29.00
43561;DHT22;32305;46.410;17.394;2023-02-12T07:48:43;21.20;29.00
43561;DHT22;32305;46.410;17.394;2023-02-12T07:51:15;21.20;29.00
43561;DHT22;32305;46.410;17.394;2023-02-12T07:53:45;21.20;29.00
43561;DHT22;32305;46.410;17.394;2023-02-12T07:56:14;21.30;29.00
43561;DHT22;32305;46.410;17.394;2023-02-12T07:58:44;21.30;29.00
43561;DHT22;32305;46.410;17.394;2023-02-12T08:01:20;21.30;29.00
43561;DHT22;32305;46.410;17.394;2023-02-12T08:03:48;21.30;28.90
43561;DHT22;32305;46.410;17.394;2023-02-12T08:06:18;21.40;29.00
43561;DHT22;32305;46.410;17.394;2023-02-12T08:08:46;21.40;29.00
43561;DHT22;32305;46.410;17.394;2023-02-12T08:11:15;21.40;28.90
43561;DHT22;32305;46.410;17.394;2023-02-12T08:13:44;21.50;29.00
43561;DHT22;32305;46.410;17.394;2023-02-12T08:16:17;21.50;29.00
43561;DHT22;32305;46.410;17.394;2023-02-12T08:18:45;21.50;29.40
43561;DHT22;32305;46.410;17.394;2023-02-12T08:21:18;21.60;29.00
43561;DHT22;32305;46.410;17.394;2023-02-12T08:23:47;21.60;29.00
43561;DHT22;32305;46.410;17.394;2023-02-12T08:26:20;21.60;29.00
43561;DHT22;32305;46.410;17.394;2023-02-12T08:28:53;21.60;29.00
43561;DHT22;32305;46.410;17.394;2023-02-12T08:31:23;21.70;29.00
43561;DHT22;32305;46.410;17.394;2023-02-12T08:33:52;21.70;29.00
43561;DHT22;32305;46.410;17.394;2023-02-12T08:36:22;21.70;29.00
43561;DHT22;32305;46.410;17.394;2023-02-12T08:38:50;21.70;29.00
43561;DHT22;32305;46.410;17.394;2023-02-12T08:41:20;21.80;29.00
43561;DHT22;32305;46.410;17.394;2023-02-12T08:43:48;21.80;29.00
43561;DHT22;32305;46.410;17.394;2023-02-12T08:46:18;21.80;29.00
43561;DHT22;32305;46.410;17.394;2023-02-12T08:48:46;21.80;29.00
43561;DHT22;32305;46.410;17.394;2023-02-12T08:51:18;21.80;29.00
43561;DHT22;32305;46.410;17.394;2023-02-12T08:53:50;21.90;29.10
43561;DHT22;32305;46.410;17.394;2023-02-12T08:56:17;21.90;29.00
43561;DHT22;32305;46.410;17.394;2023-02-12T08:58:45;21.90;29.00
43561;DHT22;32305;46.410;17.394;2023-02-12T09:01:15;22.00;29.10
43561;DHT22;32305;46.410;17.394;2023-02-12T09:03:43;22.00;29.10
43561;DHT22;32305;46.410;17.394;2023-02-12T09:06:11;22.00;29.10
43561;DHT22;32305;46.410;17.394;2023-02-12T09:08:39;22.00;29.10
43561;DHT22;32305;46.410;17.394;2023-02-12T09:11:13;22.00;29.10
43561;DHT22;32305;46.410;17.394;2023-02-12T09:13:43;22.00;29.10
43561;DHT22;32305;46.410;17.394;2023-02-12T09:16:12;22.00;29.10
43561;DHT22;32305;46.410;17.394;2023-02-12T09:18:40;22.00;29.10
43561;DHT22;32305;46.410;17.394;2023-02-12T09:21:10;22.10;29.20
43561;DHT22;32305;46.410;17.394;2023-02-12T09:23:38;22.10;29.20
43561;DHT22;32305;46.410;17.394;2023-02-12T09:26:06;22.10;29.20
43561;DHT22;32305;46.410;17.394;2023-02-12T09:28:35;22.10;29.20
43561;DHT22;32305;46.410;17.394;2023-02-12T09:31:12;22.20;29.20
43561;DHT22;32305;46.410;17.394;2023-02-12T09:33:41;22.20;29.20
43561;DHT22;32305;46.410;17.394;2023-02-12T09:36:14;22.20;29.20
43561;DHT22;32305;46.410;17.394;2023-02-12T09:38:42;22.20;29.20
43561;DHT22;32305;46.410;17.394;2023-02-12T09:41:51;22.20;29.20
43561;DHT22;32305;46.410;17.394;2023-02-12T09:44:44;22.20;29.20
43561;DHT22;32305;46.410;17.394;2023-02-12T09:47:20;22.30;29.30
43561;DHT22;32305;46.410;17.394;2023-02-12T09:50:26;22.30;29.30
43561;DHT22;32305;46.410;17.394;2023-02-12T09:52:55;22.30;29.30
43561;DHT22;32305;46.410;17.394;2023-02-12T09:55:29;22.30;29.30
43561;DHT22;32305;46.410;17.394;2023-02-12T09:57:57;22.40;29.30
43561;DHT22;32305;46.410;17.394;2023-02-12T10:00:28;22.40;29.30
43561;DHT22;32305;46.410;17.394;2023-02-12T10:03:01;22.50;29.30
43561;DHT22;32305;46.410;17.394;2023-02-12T10:05:37;22.50;29.30
43561;DHT22;32305;46.410;17.394;2023-02-12T10:08:30;22.50;29.20
43561;DHT22;32305;46.410;17.394;2023-02-12T10:11:35;22.50;29.20
43561;DHT22;32305;46.410;17.394;2023-02-12T10:17:39;22.60;29.20
43561;DHT22;32305;46.410;17.394;2023-02-12T10:20:36;22.70;29.20
43561;DHT22;32305;46.410;17.394;2023-02-12T10:23:26;22.70;29.10
43561;DHT22;32305;46.410;17.394;2023-02-12T10:28:52;22.80;29.10
43561;DHT22;32305;46.410;17.394;2023-02-12T10:31:36;22.80;29.10
43561;DHT22;32305;46.410;17.394;2023-02-12T10:34:17;22.80;29.10
43561;DHT22;32305;46.410;17.394;2023-02-12T10:36:45;22.80;29.10
43561;DHT22;32305;46.410;17.394;2023-02-12T10:39:25;22.80;29.10
43561;DHT22;32305;46.410;17.394;2023-02-12T10:42:15;22.80;29.10
43561;DHT22;32305;46.410;17.394;2023-02-12T10:44:42;22.90;29.10
43561;DHT22;32305;46.410;17.394;2023-02-12T10:47:18;22.90;29.10
43561;DHT22;32305;46.410;17.394;2023-02-12T10:49:55;22.90;29.10
43561;DHT22;32305;46.410;17.394;2023-02-12T10:52:46;22.90;29.10
43561;DHT22;32305;46.410;17.394;2023-02-12T10:55:32;22.90;29.10
43561;DHT22;32305;46.410;17.394;2023-02-12T10:58:02;22.90;29.10
43561;DHT22;32305;46.410;17.394;2023-02-12T11:00:35;22.90;29.10
43561;DHT22;32305;46.410;17.394;2023-02-12T11:03:20;23.00;29.10
43561;DHT22;32305;46.410;17.394;2023-02-12T11:05:47;23.00;29.10
43561;DHT22;32305;46.410;17.394;2023-02-12T11:08:32;23.00;29.00
43561;DHT22;32305;46.410;17.394;2023-02-12T11:11:13;23.00;29.00
43561;DHT22;32305;46.410;17.394;2023-02-12T11:13:46;23.10;29.10
43561;DHT22;32305;46.410;17.394;2023-02-12T11:16:33;23.10;29.00
43561;DHT22;32305;46.410;17.394;2023-02-12T11:19:04;23.30;29.10
43561;DHT22;32305;46.410;17.394;2023-02-12T11:21:32;23.30;29.10
43561;DHT22;32305;46.410;17.394;2023-02-12T11:24:28;23.40;29.10
43561;DHT22;32305;46.410;17.394;2023-02-12T11:27:23;23.40;29.00
43561;DHT22;32305;46.410;17.394;2023-02-12T11:30:13;23.40;29.00
43561;DHT22;32305;46.410;17.394;2023-02-12T11:32:40;23.40;29.00
43561;DHT22;32305;46.410;17.394;2023-02-12T11:35:21;23.40;29.00
43561;DHT22;32305;46.410;17.394;2023-02-12T11:37:56;23.40;29.00
43561;DHT22;32305;46.410;17.394;2023-02-12T11:40:30;23.40;29.00
43561;DHT22;32305;46.410;17.394;2023-02-12T11:43:03;23.50;29.00
43561;DHT22;32305;46.410;17.394;2023-02-12T11:45:47;23.50;29.10
43561;DHT22;32305;46.410;17.394;2023-02-12T11:48:16;23.50;29.00
43561;DHT22;32305;46.410;17.394;2023-02-12T11:50:47;23.60;29.10
43561;DHT22;32305;46.410;17.394;2023-02-12T11:53:24;23.60;29.00
43561;DHT22;32305;46.410;17.394;2023-02-12T11:56:05;23.60;29.00
43561;DHT22;32305;46.410;17.394;2023-02-12T11:58:32;23.60;29.00
43561;DHT22;32305;46.410;17.394;2023-02-12T12:01:13;23.60;29.00
43561;DHT22;32305;46.410;17.394;2023-02-12T12:03:59;23.60;29.00
43561;DHT22;32305;46.410;17.394;2023-02-12T12:06:34;23.60;28.90
43561;DHT22;32305;46.410;17.394;2023-02-12T12:09:09;23.60;28.80
43561;DHT22;32305;46.410;17.394;2023-02-12T12:11:56;23.60;28.80
43561;DHT22;32305;46.410;17.394;2023-02-12T12:14:30;23.60;28.90
43561;DHT22;32305;46.410;17.394;2023-02-12T12:17:03;23.60;28.80
43561;DHT22;32305;46.410;17.394;2023-02-12T12:20:02;23.70;28.80
43561;DHT22;32305;46.410;17.394;2023-02-12T12:22:53;23.60;28.80
43561;DHT22;32305;46.410;17.394;2023-02-12T12:25:30;23.70;28.80
43561;DHT22;32305;46.410;17.394;2023-02-12T12:31:10;23.70;28.80
43561;DHT22;32305;46.410;17.394;2023-02-12T12:33:53;23.70;28.70
43561;DHT22;32305;46.410;17.394;2023-02-12T12:36:47;23.80;28.70
43561;DHT22;32305;46.410;17.394;2023-02-12T12:39:35;23.80;28.70
43561;DHT22;32305;46.410;17.394;2023-02-12T12:42:29;23.80;28.70
43561;DHT22;32305;46.410;17.394;2023-02-12T12:48:37;23.80;28.70
43561;DHT22;32305;46.410;17.394;2023-02-12T12:51:22;23.80;29.20
43561;DHT22;32305;46.410;17.394;2023-02-12T12:54:26;23.80;28.70
43561;DHT22;32305;46.410;17.394;2023-02-12T12:57:34;23.80;28.80
43561;DHT22;32305;46.410;17.394;2023-02-12T13:00:34;23.80;28.70
43561;DHT22;32305;46.410;17.394;2023-02-12T13:03:19;23.80;28.70
43561;DHT22;32305;46.410;17.394;2023-02-12T13:06:22;23.70;28.70
43561;DHT22;32305;46.410;17.394;2023-02-12T13:09:19;23.70;28.70
43561;DHT22;32305;46.410;17.394;2023-02-12T13:17:51;23.60;28.60
43561;DHT22;32305;46.410;17.394;2023-02-12T13:20:30;23.60;28.70
43561;DHT22;32305;46.410;17.394;2023-02-12T13:23:13;23.60;28.70
43561;DHT22;32305;46.410;17.394;2023-02-12T13:26:03;23.60;28.70
43561;DHT22;32305;46.410;17.394;2023-02-12T13:28:39;23.50;28.60
43561;DHT22;32305;46.410;17.394;2023-02-12T13:31:13;23.50;28.70
43561;DHT22;32305;46.410;17.394;2023-02-12T13:34:02;23.50;28.70
43561;DHT22;32305;46.410;17.394;2023-02-12T13:36:30;23.40;28.70
43561;DHT22;32305;46.410;17.394;2023-02-12T13:39:17;23.40;28.80
43561;DHT22;32305;46.410;17.394;2023-02-12T13:42:02;23.40;28.80
43561;DHT22;32305;46.410;17.394;2023-02-12T13:47:50;23.50;28.80
43561;DHT22;32305;46.410;17.394;2023-02-12T13:50:41;23.50;28.80
43561;DHT22;32305;46.410;17.394;2023-02-12T13:53:45;23.50;28.80
43561;DHT22;32305;46.410;17.394;2023-02-12T13:59:37;23.50;28.80
43561;DHT22;32305;46.410;17.394;2023-02-12T14:02:27;23.50;28.80
43561;DHT22;32305;46.410;17.394;2023-02-12T14:04:59;23.60;28.80
43561;DHT22;32305;46.410;17.394;2023-02-12T14:07:43;23.60;28.70
43561;DHT22;32305;46.410;17.394;2023-02-12T14:10:34;23.60;28.70
43561;DHT22;32305;46.410;17.394;2023-02-12T14:13:09;23.60;28.70
43561;DHT22;32305;46.410;17.394;2023-02-12T14:15:40;23.50;28.70
43561;DHT22;32305;46.410;17.394;2023-02-12T14:18:29;23.50;28.60
43561;DHT22;32305;46.410;17.394;2023-02-12T14:24:39;23.50;28.60
43561;DHT22;32305;46.410;17.394;2023-02-12T14:27:31;23.50;28.70
43561;DHT22;32305;46.410;17.394;2023-02-12T14:32:57;23.50;28.70
43561;DHT22;32305;46.410;17.394;2023-02-12T14:35:34;23.40;28.70
43561;DHT22;32305;46.410;17.394;2023-02-12T14:40:50;23.40;28.70
43561;DHT22;32305;46.410;17.394;2023-02-12T14:43:26;23.40;28.70
43561;DHT22;32305;46.410;17.394;2023-02-12T14:45:56;23.40;28.70
43561;DHT22;32305;46.410;17.394;2023-02-12T14:48:49;23.40;28.70
43561;DHT22;32305;46.410;17.394;2023-02-12T14:51:42;23.40;28.80
43561;DHT22;32305;46.410;17.394;2023-02-12T14:54:34;23.40;28.80
43561;DHT22;32305;46.410;17.394;2023-02-12T14:59:59;23.40;28.80
43561;DHT22;32305;46.410;17.394;2023-02-12T15:02:29;23.40;28.80
43561;DHT22;32305;46.410;17.394;2023-02-12T15:05:02;23.40;28.80
43561;DHT22;32305;46.410;17.394;2023-02-12T15:07:47;23.30;28.80
43561;DHT22;32305;46.410;17.394;2023-02-12T15:10:21;23.30;28.90
43561;DHT22;32305;46.410;17.394;2023-02-12T15:15:49;23.30;28.90
43561;DHT22;32305;46.410;17.394;2023-02-12T15:18:48;23.30;29.00
43561;DHT22;32305;46.410;17.394;2023-02-12T15:21:24;23.20;29.10
43561;DHT22;32305;46.410;17.394;2023-02-12T15:24:08;23.20;29.20
43561;DHT22;32305;46.410;17.394;2023-02-12T15:26:45;23.10;29.10
43561;DHT22;32305;46.410;17.394;2023-02-12T15:29:23;23.10;29.20
43561;DHT22;32305;46.410;17.394;2023-02-12T15:31:58;23.00;29.30
43561;DHT22;32305;46.410;17.394;2023-02-12T15:34:34;23.00;29.30
43561;DHT22;32305;46.410;17.394;2023-02-12T15:37:04;23.00;29.40
43561;DHT22;32305;46.410;17.394;2023-02-12T15:39:40;22.90;29.40
43561;DHT22;32305;46.410;17.394;2023-02-12T15:42:33;22.80;29.40
43561;DHT22;32305;46.410;17.394;2023-02-12T15:45:16;22.80;29.50
43561;DHT22;32305;46.410;17.394;2023-02-12T15:47:56;22.70;29.60
43561;DHT22;32305;46.410;17.394;2023-02-12T15:50:25;22.70;30.00
43561;DHT22;32305;46.410;17.394;2023-02-12T15:52:53;22.70;29.70
43561;DHT22;32305;46.410;17.394;2023-02-12T15:55:26;22.60;29.80
43561;DHT22;32305;46.410;17.394;2023-02-12T15:57:56;22.60;29.80
43561;DHT22;32305;46.410;17.394;2023-02-12T16:00:40;22.50;29.90
43561;DHT22;32305;46.410;17.394;2023-02-12T16:03:29;22.50;29.90
43561;DHT22;32305;46.410;17.394;2023-02-12T16:06:07;22.40;29.90
43561;DHT22;32305;46.410;17.394;2023-02-12T16:08:45;22.40;30.00
43561;DHT22;32305;46.410;17.394;2023-02-12T16:11:18;22.30;30.00
43561;DHT22;32305;46.410;17.394;2023-02-12T16:13:53;22.30;30.00
43561;DHT22;32305;46.410;17.394;2023-02-12T16:16:25;22.30;30.00
43561;DHT22;32305;46.410;17.394;2023-02-12T16:19:22;22.20;30.60
43561;DHT22;32305;46.410;17.394;2023-02-12T16:22:06;22.20;30.10
43561;DHT22;32305;46.410;17.394;2023-02-12T16:24:37;22.20;30.20
43561;DHT22;32305;46.410;17.394;2023-02-12T16:27:16;22.10;30.20
43561;DHT22;32305;46.410;17.394;2023-02-12T16:29:48;22.10;30.20
43561;DHT22;32305;46.410;17.394;2023-02-12T16:32:40;22.10;30.30
43561;DHT22;32305;46.410;17.394;2023-02-12T16:35:25;22.00;30.30
43561;DHT22;32305;46.410;17.394;2023-02-12T16:38:02;22.00;30.40
43561;DHT22;32305;46.410;17.394;2023-02-12T16:40:38;22.00;31.00
43561;DHT22;32305;46.410;17.394;2023-02-12T16:43:23;21.90;30.40
43561;DHT22;32305;46.410;17.394;2023-02-12T16:45:51;21.90;30.50
43561;DHT22;32305;46.410;17.394;2023-02-12T16:48:27;21.90;30.50
43561;DHT22;32305;46.410;17.394;2023-02-12T16:50:56;21.90;30.60
43561;DHT22;32305;46.410;17.394;2023-02-12T16:53:35;21.80;30.60
43561;DHT22;32305;46.410;17.394;2023-02-12T16:56:03;21.80;30.60
43561;DHT22;32305;46.410;17.394;2023-02-12T16:58:31;21.80;30.70